Thacker, West Virginia
Current Conditions -  °F | °C
As of 8:15 AM on Friday 31 Oct 2014 (Local Time) from KPBX Reporting Station
Haze Haze  
Wind Chill:   Ceiling: 5500
Heat Index:   Visibility: 5mi
Dew Point:   Wind: 3mph
Humidity: 98%   Direction: 170°S
Pressure: 29.96"   Gusts: NA
Location:  37.59°N, 82.13°W
Report Text: KPBX 311215Z AUTO 17003KT 5SM BR OVC055 02/02 A2996 RMK AO2 T00230020
Loading
Personal Weather Stations






























Interactive Weather Map
Tropical Storm Tracking
New forecast layout! Learn more

10-Day Weather Forecast

Advertisements
Track Severe Weather on mobile